Capitol Logistics 1171


EBLG
Liège Airport
Liege, BE
EETN
Tallinn Airport
Tallinn, EE

Route Details

Aircraft Information
Primary: Boeing 767-300BDSF
Backup: Not Available
Route Data
Distance: 849nm
Sched. Duration: 2h 00m
Avg. Duration: 2h 24m (+24m)
Times Flown: 6
Recm'd Route: LNO5E LNO M170 NVO UZ706 PIXID GESKA P605 MALIV M611 KOLJA M611 LONSA
Planned Altitude: 35,000ft
Origin Wx: EBLG 310650Z 05010KT 6000 BKN004 02/01 Q1029 BECMG SCT008
Dest. Wx: EETN 310650Z 24010KT 9999 FEW030 M00/M07 Q1024 R08/12//95 NOSIG
Notes:

Financial History
Total Freight: 572,221lbs
Average Load: 95,370lbs/flt
Fuel Used: 149,239lbs
Avg. Fuel Used: 24,873lbs/flt
Fuel Expense: $165,655
Avg. Fuel Expense: $27,609
Avg. Fuel Cost: $1.11/lbs
Total Gross Income: $831,097
Pilot Pay: $974
Total Expenses: $86,417
Total Revenue: $575,919
Average Revenue: $138,516.11